METAR Reports From Nearby Airports

 

KLUD - Decatur, Texas, USA
Distance from Wildwood: ESE 5mi, 8km
Updated: May 16, 2021 1:55pm
Mostly Cloudy
Mostly Cloudy
 Wind from SE
Wind: SE 13 mph , 20 km/h
Temperature: 73°F , 23°C
Dew Point: 70°F , 21°C
Humidity: 89%
Barometer: 29.95 inHg , 1014.2 hPa
Clouds: Mostly Cloudy
Visibility: 10 miles , 16 km
Cloud details: Mostly Cloudy 1000 ft
Mostly Cloudy 1400 ft
Mostly Cloudy 2000 ft
2021/05/16 18:55 KLUD 161855Z AUTO 13011KT 10SM BKN010 BKN014 BKN020 23/21 A2995 RMK AO2 P0001 T02330205
KXBP - Bridgeport, Texas, USA
Distance from Wildwood: WSW 11mi, 18km
Updated: May 16, 2021 1:55pm
Mostly Cloudy
Mostly Cloudy
 Wind from ESE
Wind: ESE 8 mph , 13 km/h
Temperature: 79°F , 26°C
Dew Point: 70°F , 21°C
Humidity: 74%
Barometer: 29.94 inHg , 1013.9 hPa
Clouds: Mostly Cloudy
Visibility: 10 miles , 16 km
Cloud details: Partly Cloudy 2100 ft
Partly Cloudy 2800 ft
Mostly Cloudy 7000 ft
2021/05/16 18:55 KXBP 161855Z AUTO 12007KT 10SM SCT021 SCT028 BKN070 26/21 A2994 RMK AO2 LTG DSNT E T02590205
 
K0F2 - Bowie, Texas, USA
Distance from Wildwood: NNW 24mi, 39km
Updated: May 16, 2021 1:55pm
Mostly Cloudy
Mostly Cloudy
 Wind from SSE
Wind: SSE 9 mph , 15 km/h
Temperature: 75°F , 24°C
Dew Point: 70°F , 21°C
Humidity: 83%
Barometer: 29.94 inHg , 1013.9 hPa
Clouds: Mostly Cloudy
Visibility: 10 miles , 16 km
Cloud details: Partly Cloudy 1300 ft
Partly Cloudy 2000 ft
Mostly Cloudy 2900 ft
2021/05/16 18:55 K0F2 161855Z AUTO 16008KT 10SM SCT013 SCT020 BKN029 24/21 A2994 RMK AO2 T02400208
KDTO - Denton, Texas, USA
Distance from Wildwood: E 27mi, 44km
Updated: May 16, 2021 2:02pm
Light rain, Mist, Overcast
Light rain, Mist, Overcast
 Wind from SE
Wind: SE 10 mph , 17 km/h
Temperature: 66°F , 19°C
Dew Point: 66°F , 19°C
Humidity: 100%
Barometer: 29.96 inHg , 1014.6 hPa
Summary: Light rain, Mist
Clouds: Overcast
Visibility: 6 miles , 10 km
Cloud details: Mostly Cloudy 900 ft
Mostly Cloudy 1400 ft
Overcast 2300 ft
2021/05/16 19:02 KDTO 161902Z 13009KT 6SM -RA BR BKN009 BKN014 OVC023 19/19 A2996 RMK AO2 LTG DSNT E AND SE RAB1858 CIG 005V010 P0001 T01940194 $
 
KAFW - Ft Worth/Allianc, Texas, USA
Distance from Wildwood: SE 29mi, 46km
Updated: May 16, 2021 2:00pm
Light rain, Overcast
Light rain, Overcast
 Wind from ESE
Wind: ESE 9 mph , 15 km/h
Temperature: 72°F , 22°C
Dew Point: 68°F , 20°C
Humidity: 88%
Barometer: 29.94 inHg , 1013.9 hPa
Summary: Light Rain
Clouds: Overcast
Visibility: 10 miles , 16 km
Cloud details: Mostly Cloudy 1000 ft
Mostly Cloudy 1600 ft
Overcast 3200 ft
2021/05/16 19:00 KAFW 161900Z 12008KT 10SM -RA BKN010 BKN016 OVC032 22/20 A2994 RMK AO2 LTG DSNT E CIG 008V014 P0000 T02220200
KFTW - Fort Worth, Texas, USA
Distance from Wildwood: SSE 34mi, 55km
Updated: May 16, 2021 1:53pm
Overcast
Overcast
 Wind from S
Wind: S 10 mph , 17 km/h, Gust: 21 mph , 33 km/h
Temperature: 73°F , 23°C
Dew Point: 70°F , 21°C
Humidity: 89%
Barometer: 29.93 inHg , 1013.5 hPa
Clouds: Overcast
Visibility: 10 miles , 16 km
Cloud details: Mostly Cloudy 1300 ft
Mostly Cloudy 2000 ft
Overcast 4300 ft
2021/05/16 18:53 KFTW 161853Z 17009G18KT 10SM BKN013 BKN020 OVC043 23/21 A2993 RMK AO2 SLP129 T02330211
 
KNFW - Fort Worth Nas, Texas, USA
Distance from Wildwood: SSE 36mi, 58km
Updated: May 16, 2021 1:52pm
Overcast
Overcast
 Wind from S
Wind: S 16 mph , 26 km/h
Temperature: 79°F , 26°C
Dew Point: 70°F , 21°C
Humidity: 74%
Barometer: 29.94 inHg , 1013.9 hPa
Clouds: Overcast
Visibility: 10 miles , 16 km
Cloud details: Mostly Cloudy 1800 ft
Mostly Cloudy 3800 ft
Overcast 5000 ft
2021/05/16 18:52 KNFW 161852Z 17014KT 10SM BKN018 BKN038 OVC050 26/21 A2994 RMK AO2 SLP121 P0001 T02560206 $
KGLE - Gainesville, Texas, USA
Distance from Wildwood: NE 38mi, 61km
Updated: May 16, 2021 1:55pm
Overcast
Overcast
 Wind from SSE
Wind: SSE 13 mph , 20 km/h, Gust: 16 mph , 26 km/h
Temperature: 70°F , 21°C
Dew Point: 68°F , 20°C
Humidity: 94%
Barometer: 29.98 inHg , 1015.2 hPa
Clouds: Overcast
Visibility: 7 miles , 11 km
Cloud details: Mostly Cloudy 800 ft
Overcast 1400 ft
2021/05/16 18:55 KGLE 161855Z AUTO 16011G14KT 7SM BKN008 OVC014 21/20 A2998 RMK AO2 P0001 T02050200 PWINO
 
KMWL - Mineral Wells, Texas, USA
Distance from Wildwood: SW 41mi, 65km
Updated: May 16, 2021 2:03pm
Nearby thunderstorm, Light rain, Mostly cloudy
Nearby thunderstorm, Light rain, Mostly cloudy
 Wind from ESE
Wind: ESE 12 mph , 19 km/h
Temperature: 75°F , 24°C
Dew Point: 72°F , 22°C
Humidity: 89%
Barometer: 29.89 inHg , 1012.2 hPa
Summary: Nearby thunderstorm, Light rain
Clouds: Mostly Cloudy
Visibility: 7 miles , 11 km
Cloud details: Partly Cloudy 2200 ft
Partly Cloudy 4500 ft
Mostly Cloudy 6500 ft
2021/05/16 19:03 KMWL 161903Z AUTO 12010KT 7SM VCTS -RA SCT022 SCT045 BKN065 24/22 A2989 RMK AO2 PRESFR P0000 T02440217
KDFW - Dallas/Ft Worth, Texas, USA
Distance from Wildwood: ESE 45mi, 73km
Updated: May 16, 2021 2:03pm
Nearby thunderstorm, Light rain, Overcast
Nearby thunderstorm, Light rain, Overcast
 Wind from varies
Wind: varies 3 mph , 6 km/h
Temperature: 70°F , 21°C
Dew Point: 68°F , 20°C
Humidity: 94%
Barometer: 29.94 inHg , 1013.9 hPa
Summary: Nearby thunderstorm, Light rain
Clouds: Overcast
Visibility: 3 miles , 5 km
Cloud details: Partly Cloudy 400 ft
Mostly Cloudy 1500 ft
Overcast 2500 ft
2021/05/16 19:03 KDFW 161903Z VRB03KT 3SM VCTS -RA SCT004 BKN015 OVC025 21/20 A2994 RMK AO2 SFC VIS 4 LTG DSNT NE P0017 T02060200